sensor_id;sensor_type;location;lat;lon;timestamp;P1;durP1;ratioP1;P2;durP2;ratioP2
31686;SDS011;18285;51.330;4.946;2023-04-09T00:07:37;4.80;;;3.75;;
31686;SDS011;18285;51.330;4.946;2023-04-09T00:31:48;4.65;;;3.90;;
31686;SDS011;18285;51.330;4.946;2023-04-09T00:55:58;5.00;;;4.07;;
31686;SDS011;18285;51.330;4.946;2023-04-09T01:20:11;4.65;;;4.00;;
31686;SDS011;18285;51.330;4.946;2023-04-09T01:44:31;4.82;;;4.32;;
31686;SDS011;18285;51.330;4.946;2023-04-09T02:08:43;6.20;;;5.60;;
31686;SDS011;18285;51.330;4.946;2023-04-09T02:32:55;7.10;;;6.40;;
31686;SDS011;18285;51.330;4.946;2023-04-09T02:57:06;8.38;;;7.57;;
31686;SDS011;18285;51.330;4.946;2023-04-09T03:21:16;9.07;;;8.25;;
31686;SDS011;18285;51.330;4.946;2023-04-09T03:45:27;9.73;;;8.73;;
31686;SDS011;18285;51.330;4.946;2023-04-09T04:09:38;10.10;;;9.13;;
31686;SDS011;18285;51.330;4.946;2023-04-09T04:33:49;13.07;;;11.77;;
31686;SDS011;18285;51.330;4.946;2023-04-09T04:58:00;11.35;;;10.25;;
31686;SDS011;18285;51.330;4.946;2023-04-09T05:22:11;11.18;;;10.18;;
31686;SDS011;18285;51.330;4.946;2023-04-09T05:46:21;13.35;;;12.05;;
31686;SDS011;18285;51.330;4.946;2023-04-09T06:10:32;13.80;;;12.30;;
31686;SDS011;18285;51.330;4.946;2023-04-09T06:34:43;12.95;;;11.10;;
31686;SDS011;18285;51.330;4.946;2023-04-09T06:58:53;13.25;;;11.85;;
31686;SDS011;18285;51.330;4.946;2023-04-09T07:23:04;10.23;;;9.23;;
31686;SDS011;18285;51.330;4.946;2023-04-09T07:47:15;30.75;;;25.45;;
31686;SDS011;18285;51.330;4.946;2023-04-09T08:11:26;19.90;;;14.80;;
31686;SDS011;18285;51.330;4.946;2023-04-09T08:35:37;30.92;;;26.77;;
31686;SDS011;18285;51.330;4.946;2023-04-09T08:59:50;31.27;;;26.50;;
31686;SDS011;18285;51.330;4.946;2023-04-09T09:24:01;38.90;;;29.27;;
31686;SDS011;18285;51.330;4.946;2023-04-09T09:48:25;26.38;;;22.85;;
31686;SDS011;18285;51.330;4.946;2023-04-09T10:12:36;24.35;;;19.75;;
31686;SDS011;18285;51.330;4.946;2023-04-09T10:36:57;19.20;;;15.27;;
31686;SDS011;18285;51.330;4.946;2023-04-09T11:01:19;20.60;;;14.48;;
31686;SDS011;18285;51.330;4.946;2023-04-09T11:25:32;13.82;;;10.98;;
31686;SDS011;18285;51.330;4.946;2023-04-09T11:49:45;13.60;;;8.05;;
31686;SDS011;18285;51.330;4.946;2023-04-09T12:13:59;9.90;;;5.88;;
31686;SDS011;18285;51.330;4.946;2023-04-09T12:38:11;7.35;;;5.50;;
31686;SDS011;18285;51.330;4.946;2023-04-09T13:02:22;8.55;;;5.00;;
31686;SDS011;18285;51.330;4.946;2023-04-09T13:26:33;6.15;;;4.63;;
31686;SDS011;18285;51.330;4.946;2023-04-09T13:50:44;7.53;;;4.63;;
31686;SDS011;18285;51.330;4.946;2023-04-09T14:14:55;5.63;;;3.83;;
31686;SDS011;18285;51.330;4.946;2023-04-09T14:39:06;4.38;;;3.38;;
31686;SDS011;18285;51.330;4.946;2023-04-09T15:03:16;3.75;;;3.35;;
31686;SDS011;18285;51.330;4.946;2023-04-09T15:27:27;3.72;;;2.83;;
31686;SDS011;18285;51.330;4.946;2023-04-09T15:51:38;2.85;;;2.30;;
31686;SDS011;18285;51.330;4.946;2023-04-09T16:15:48;2.88;;;2.42;;
31686;SDS011;18285;51.330;4.946;2023-04-09T16:40:00;3.65;;;2.85;;
31686;SDS011;18285;51.330;4.946;2023-04-09T17:04:11;3.28;;;2.60;;
31686;SDS011;18285;51.330;4.946;2023-04-09T17:28:21;6.70;;;3.70;;
31686;SDS011;18285;51.330;4.946;2023-04-09T17:52:32;6.18;;;4.30;;
31686;SDS011;18285;51.330;4.946;2023-04-09T18:16:47;5.57;;;4.72;;
31686;SDS011;18285;51.330;4.946;2023-04-09T18:40:58;4.35;;;3.53;;
31686;SDS011;18285;51.330;4.946;2023-04-09T19:05:10;7.00;;;5.97;;
31686;SDS011;18285;51.330;4.946;2023-04-09T19:29:20;5.60;;;4.22;;
31686;SDS011;18285;51.330;4.946;2023-04-09T19:53:31;5.97;;;4.90;;
31686;SDS011;18285;51.330;4.946;2023-04-09T20:17:42;10.63;;;4.50;;
31686;SDS011;18285;51.330;4.946;2023-04-09T20:41:53;6.70;;;3.63;;
31686;SDS011;18285;51.330;4.946;2023-04-09T21:30:17;6.22;;;3.42;;
31686;SDS011;18285;51.330;4.946;2023-04-09T21:54:28;6.18;;;3.40;;
31686;SDS011;18285;51.330;4.946;2023-04-09T22:18:38;4.10;;;3.33;;
31686;SDS011;18285;51.330;4.946;2023-04-09T22:42:49;5.55;;;3.30;;
31686;SDS011;18285;51.330;4.946;2023-04-09T23:07:00;4.88;;;3.40;;
31686;SDS011;18285;51.330;4.946;2023-04-09T23:31:11;5.00;;;3.17;;
31686;SDS011;18285;51.330;4.946;2023-04-09T23:55:22;3.28;;;2.97;;
